sensor_id;sensor_type;location;lat;lon;timestamp;P1;durP1;ratioP1;P2;durP2;ratioP2
53269;SDS011;39159;45.634;9.420;2023-04-01T00:01:39;25.98;;;16.38;;
53269;SDS011;39159;45.634;9.420;2023-04-01T00:04:05;27.67;;;19.48;;
53269;SDS011;39159;45.634;9.420;2023-04-01T00:06:30;30.05;;;21.67;;
53269;SDS011;39159;45.634;9.420;2023-04-01T00:08:56;51.50;;;37.22;;
53269;SDS011;39159;45.634;9.420;2023-04-01T00:11:21;42.80;;;32.83;;
53269;SDS011;39159;45.634;9.420;2023-04-01T00:13:47;43.05;;;29.45;;
53269;SDS011;39159;45.634;9.420;2023-04-01T00:16:13;38.40;;;28.10;;
53269;SDS011;39159;45.634;9.420;2023-04-01T00:18:38;36.63;;;25.30;;
53269;SDS011;39159;45.634;9.420;2023-04-01T00:21:04;34.78;;;26.35;;
53269;SDS011;39159;45.634;9.420;2023-04-01T00:23:30;35.95;;;23.88;;
53269;SDS011;39159;45.634;9.420;2023-04-01T00:25:56;32.55;;;22.70;;
53269;SDS011;39159;45.634;9.420;2023-04-01T00:28:23;28.08;;;18.80;;
53269;SDS011;39159;45.634;9.420;2023-04-01T00:30:49;25.73;;;16.73;;
53269;SDS011;39159;45.634;9.420;2023-04-01T00:33:15;30.83;;;17.98;;
53269;SDS011;39159;45.634;9.420;2023-04-01T00:35:41;21.15;;;15.43;;
53269;SDS011;39159;45.634;9.420;2023-04-01T00:38:07;26.27;;;16.30;;
53269;SDS011;39159;45.634;9.420;2023-04-01T00:40:37;23.40;;;15.32;;
53269;SDS011;39159;45.634;9.420;2023-04-01T00:43:11;18.85;;;13.93;;
53269;SDS011;39159;45.634;9.420;2023-04-01T00:45:40;21.70;;;13.85;;
53269;SDS011;39159;45.634;9.420;2023-04-01T00:48:30;20.85;;;12.88;;
53269;SDS011;39159;45.634;9.420;2023-04-01T00:51:00;18.38;;;11.85;;
53269;SDS011;39159;45.634;9.420;2023-04-01T00:53:34;22.33;;;12.20;;
53269;SDS011;39159;45.634;9.420;2023-04-01T00:56:15;18.48;;;12.10;;
53269;SDS011;39159;45.634;9.420;2023-04-01T00:58:46;16.23;;;11.30;;
53269;SDS011;39159;45.634;9.420;2023-04-01T01:01:16;16.05;;;11.82;;
53269;SDS011;39159;45.634;9.420;2023-04-01T01:03:42;18.38;;;11.27;;
53269;SDS011;39159;45.634;9.420;2023-04-01T01:06:11;17.80;;;11.20;;
53269;SDS011;39159;45.634;9.420;2023-04-01T01:09:06;17.65;;;11.40;;
53269;SDS011;39159;45.634;9.420;2023-04-01T01:11:57;17.23;;;10.98;;
53269;SDS011;39159;45.634;9.420;2023-04-01T01:26:04;18.45;;;12.95;;
53269;SDS011;39159;45.634;9.420;2023-04-01T01:34:26;52.88;;;38.60;;
53269;SDS011;39159;45.634;9.420;2023-04-01T01:37:09;88.22;;;57.83;;
53269;SDS011;39159;45.634;9.420;2023-04-01T01:39:38;47.08;;;33.75;;
53269;SDS011;39159;45.634;9.420;2023-04-01T01:42:06;30.65;;;22.90;;
53269;SDS011;39159;45.634;9.420;2023-04-01T01:44:35;23.10;;;15.70;;
53269;SDS011;39159;45.634;9.420;2023-04-01T01:47:02;17.90;;;12.63;;
53269;SDS011;39159;45.634;9.420;2023-04-01T01:49:28;15.45;;;10.23;;
53269;SDS011;39159;45.634;9.420;2023-04-01T01:51:56;16.48;;;11.23;;
53269;SDS011;39159;45.634;9.420;2023-04-01T01:54:22;14.35;;;10.50;;
53269;SDS011;39159;45.634;9.420;2023-04-01T01:56:48;16.27;;;10.02;;
53269;SDS011;39159;45.634;9.420;2023-04-01T01:59:17;16.00;;;10.18;;
53269;SDS011;39159;45.634;9.420;2023-04-01T02:01:47;14.05;;;10.35;;
53269;SDS011;39159;45.634;9.420;2023-04-01T02:04:15;14.77;;;9.40;;
53269;SDS011;39159;45.634;9.420;2023-04-01T02:06:47;12.23;;;8.80;;
53269;SDS011;39159;45.634;9.420;2023-04-01T02:09:21;13.48;;;9.07;;
53269;SDS011;39159;45.634;9.420;2023-04-01T02:11:48;12.57;;;9.77;;
53269;SDS011;39159;45.634;9.420;2023-04-01T02:14:18;14.40;;;8.90;;
53269;SDS011;39159;45.634;9.420;2023-04-01T02:17:03;12.02;;;8.50;;
53269;SDS011;39159;45.634;9.420;2023-04-01T02:19:49;13.90;;;9.13;;
53269;SDS011;39159;45.634;9.420;2023-04-01T02:22:23;15.57;;;9.57;;
53269;SDS011;39159;45.634;9.420;2023-04-01T02:27:19;15.40;;;9.60;;
53269;SDS011;39159;45.634;9.420;2023-04-01T02:29:46;14.02;;;8.95;;
53269;SDS011;39159;45.634;9.420;2023-04-01T02:32:12;15.15;;;8.95;;
53269;SDS011;39159;45.634;9.420;2023-04-01T02:34:38;12.68;;;8.88;;
53269;SDS011;39159;45.634;9.420;2023-04-01T02:37:04;14.38;;;9.02;;
53269;SDS011;39159;45.634;9.420;2023-04-01T02:39:30;15.65;;;9.48;;
53269;SDS011;39159;45.634;9.420;2023-04-01T02:41:55;12.13;;;8.13;;
53269;SDS011;39159;45.634;9.420;2023-04-01T02:44:21;15.13;;;8.35;;
53269;SDS011;39159;45.634;9.420;2023-04-01T02:46:46;11.27;;;6.63;;
53269;SDS011;39159;45.634;9.420;2023-04-01T02:49:12;12.75;;;7.78;;
53269;SDS011;39159;45.634;9.420;2023-04-01T02:51:37;11.60;;;8.13;;
53269;SDS011;39159;45.634;9.420;2023-04-01T02:54:03;11.52;;;7.68;;
53269;SDS011;39159;45.634;9.420;2023-04-01T02:56:29;11.90;;;7.38;;
53269;SDS011;39159;45.634;9.420;2023-04-01T02:58:54;11.90;;;7.15;;
53269;SDS011;39159;45.634;9.420;2023-04-01T03:01:20;11.82;;;7.85;;
53269;SDS011;39159;45.634;9.420;2023-04-01T03:03:46;13.18;;;9.20;;
53269;SDS011;39159;45.634;9.420;2023-04-01T03:06:12;13.15;;;8.95;;
53269;SDS011;39159;45.634;9.420;2023-04-01T03:08:39;12.77;;;8.82;;
53269;SDS011;39159;45.634;9.420;2023-04-01T03:11:05;12.95;;;7.82;;
53269;SDS011;39159;45.634;9.420;2023-04-01T03:13:31;10.73;;;7.15;;
53269;SDS011;39159;45.634;9.420;2023-04-01T03:15:57;11.68;;;7.93;;
53269;SDS011;39159;45.634;9.420;2023-04-01T03:18:22;13.40;;;8.35;;
53269;SDS011;39159;45.634;9.420;2023-04-01T03:20:48;13.23;;;7.60;;
53269;SDS011;39159;45.634;9.420;2023-04-01T03:23:14;9.82;;;7.10;;
53269;SDS011;39159;45.634;9.420;2023-04-01T03:25:42;10.15;;;7.80;;
53269;SDS011;39159;45.634;9.420;2023-04-01T03:28:08;11.13;;;7.20;;
53269;SDS011;39159;45.634;9.420;2023-04-01T03:30:33;11.88;;;7.45;;
53269;SDS011;39159;45.634;9.420;2023-04-01T03:32:59;9.75;;;6.75;;
53269;SDS011;39159;45.634;9.420;2023-04-01T03:35:25;12.93;;;7.43;;
53269;SDS011;39159;45.634;9.420;2023-04-01T03:37:52;16.73;;;7.90;;
53269;SDS011;39159;45.634;9.420;2023-04-01T03:40:18;10.48;;;7.13;;
53269;SDS011;39159;45.634;9.420;2023-04-01T03:42:43;12.73;;;7.45;;
53269;SDS011;39159;45.634;9.420;2023-04-01T03:45:09;13.23;;;7.55;;
53269;SDS011;39159;45.634;9.420;2023-04-01T03:47:37;10.85;;;7.50;;
53269;SDS011;39159;45.634;9.420;2023-04-01T03:50:02;9.23;;;6.75;;
53269;SDS011;39159;45.634;9.420;2023-04-01T03:52:29;10.45;;;6.60;;
53269;SDS011;39159;45.634;9.420;2023-04-01T03:54:54;10.93;;;7.93;;
53269;SDS011;39159;45.634;9.420;2023-04-01T03:57:20;14.30;;;7.97;;
53269;SDS011;39159;45.634;9.420;2023-04-01T03:59:46;12.10;;;7.32;;
53269;SDS011;39159;45.634;9.420;2023-04-01T04:02:11;12.32;;;7.82;;
53269;SDS011;39159;45.634;9.420;2023-04-01T04:04:37;9.90;;;6.55;;
53269;SDS011;39159;45.634;9.420;2023-04-01T04:07:02;11.70;;;6.75;;
53269;SDS011;39159;45.634;9.420;2023-04-01T04:09:29;12.38;;;7.25;;
53269;SDS011;39159;45.634;9.420;2023-04-01T04:11:55;11.40;;;6.88;;
53269;SDS011;39159;45.634;9.420;2023-04-01T04:14:22;7.22;;;5.60;;
53269;SDS011;39159;45.634;9.420;2023-04-01T04:16:48;10.50;;;6.10;;
53269;SDS011;39159;45.634;9.420;2023-04-01T04:19:14;10.18;;;5.50;;
53269;SDS011;39159;45.634;9.420;2023-04-01T04:21:40;7.93;;;5.10;;
53269;SDS011;39159;45.634;9.420;2023-04-01T04:24:07;7.70;;;4.65;;
53269;SDS011;39159;45.634;9.420;2023-04-01T04:26:33;7.97;;;4.40;;
53269;SDS011;39159;45.634;9.420;2023-04-01T04:28:58;5.53;;;4.10;;
53269;SDS011;39159;45.634;9.420;2023-04-01T04:31:24;4.93;;;3.90;;
53269;SDS011;39159;45.634;9.420;2023-04-01T04:33:51;8.07;;;3.92;;
53269;SDS011;39159;45.634;9.420;2023-04-01T04:36:17;8.50;;;4.28;;
53269;SDS011;39159;45.634;9.420;2023-04-01T04:38:43;6.00;;;3.95;;
53269;SDS011;39159;45.634;9.420;2023-04-01T04:41:10;9.48;;;3.85;;
53269;SDS011;39159;45.634;9.420;2023-04-01T04:43:37;6.07;;;3.83;;
53269;SDS011;39159;45.634;9.420;2023-04-01T04:46:05;6.53;;;3.90;;
53269;SDS011;39159;45.634;9.420;2023-04-01T04:48:32;8.10;;;4.28;;
53269;SDS011;39159;45.634;9.420;2023-04-01T04:50:57;6.57;;;3.83;;
53269;SDS011;39159;45.634;9.420;2023-04-01T04:53:23;6.18;;;3.72;;
53269;SDS011;39159;45.634;9.420;2023-04-01T04:55:50;4.50;;;3.53;;
53269;SDS011;39159;45.634;9.420;2023-04-01T04:58:16;5.45;;;3.70;;
53269;SDS011;39159;45.634;9.420;2023-04-01T05:00:42;5.40;;;3.30;;
53269;SDS011;39159;45.634;9.420;2023-04-01T05:03:09;10.48;;;4.78;;
53269;SDS011;39159;45.634;9.420;2023-04-01T05:05:35;4.78;;;3.20;;
53269;SDS011;39159;45.634;9.420;2023-04-01T05:08:01;7.47;;;3.40;;
53269;SDS011;39159;45.634;9.420;2023-04-01T05:10:27;4.90;;;3.75;;
53269;SDS011;39159;45.634;9.420;2023-04-01T05:12:52;3.38;;;2.65;;
53269;SDS011;39159;45.634;9.420;2023-04-01T05:15:18;5.03;;;3.85;;
53269;SDS011;39159;45.634;9.420;2023-04-01T05:17:43;5.05;;;3.35;;
53269;SDS011;39159;45.634;9.420;2023-04-01T05:20:11;4.97;;;3.42;;
53269;SDS011;39159;45.634;9.420;2023-04-01T05:22:37;5.63;;;3.83;;
53269;SDS011;39159;45.634;9.420;2023-04-01T05:25:03;7.22;;;4.40;;
53269;SDS011;39159;45.634;9.420;2023-04-01T05:27:29;8.80;;;4.93;;
53269;SDS011;39159;45.634;9.420;2023-04-01T05:29:55;9.40;;;5.10;;
53269;SDS011;39159;45.634;9.420;2023-04-01T05:32:21;9.02;;;4.80;;
53269;SDS011;39159;45.634;9.420;2023-04-01T05:34:49;7.53;;;5.13;;
53269;SDS011;39159;45.634;9.420;2023-04-01T05:37:16;6.35;;;4.50;;
53269;SDS011;39159;45.634;9.420;2023-04-01T05:39:41;6.22;;;4.40;;
53269;SDS011;39159;45.634;9.420;2023-04-01T05:42:07;5.82;;;4.22;;
53269;SDS011;39159;45.634;9.420;2023-04-01T05:44:33;6.78;;;4.80;;
53269;SDS011;39159;45.634;9.420;2023-04-01T05:46:59;9.35;;;5.30;;
53269;SDS011;39159;45.634;9.420;2023-04-01T05:49:24;14.07;;;8.13;;
53269;SDS011;39159;45.634;9.420;2023-04-01T05:51:50;13.18;;;7.85;;
53269;SDS011;39159;45.634;9.420;2023-04-01T05:54:16;14.77;;;7.32;;
53269;SDS011;39159;45.634;9.420;2023-04-01T05:56:42;11.65;;;6.78;;
53269;SDS011;39159;45.634;9.420;2023-04-01T05:59:09;9.65;;;6.28;;
53269;SDS011;39159;45.634;9.420;2023-04-01T06:01:35;9.38;;;5.65;;
53269;SDS011;39159;45.634;9.420;2023-04-01T06:04:01;9.75;;;5.28;;
53269;SDS011;39159;45.634;9.420;2023-04-01T06:06:27;9.60;;;5.13;;
53269;SDS011;39159;45.634;9.420;2023-04-01T06:08:55;8.02;;;5.43;;
53269;SDS011;39159;45.634;9.420;2023-04-01T06:11:28;9.65;;;5.68;;
53269;SDS011;39159;45.634;9.420;2023-04-01T06:17:11;9.65;;;5.70;;
53269;SDS011;39159;45.634;9.420;2023-04-01T06:19:54;10.70;;;6.22;;
53269;SDS011;39159;45.634;9.420;2023-04-01T06:22:51;10.38;;;6.50;;
53269;SDS011;39159;45.634;9.420;2023-04-01T06:28:23;7.95;;;5.90;;
53269;SDS011;39159;45.634;9.420;2023-04-01T06:31:19;8.93;;;5.28;;
53269;SDS011;39159;45.634;9.420;2023-04-01T06:33:56;7.93;;;5.60;;
53269;SDS011;39159;45.634;9.420;2023-04-01T06:39:50;8.23;;;5.55;;
53269;SDS011;39159;45.634;9.420;2023-04-01T06:42:45;9.93;;;5.55;;
53269;SDS011;39159;45.634;9.420;2023-04-01T06:45:52;7.47;;;5.28;;
53269;SDS011;39159;45.634;9.420;2023-04-01T06:54:20;7.75;;;5.40;;
53269;SDS011;39159;45.634;9.420;2023-04-01T06:56:50;9.00;;;5.30;;
53269;SDS011;39159;45.634;9.420;2023-04-01T06:59:26;9.32;;;5.20;;
53269;SDS011;39159;45.634;9.420;2023-04-01T07:01:56;7.95;;;4.53;;
53269;SDS011;39159;45.634;9.420;2023-04-01T07:07:04;7.80;;;5.45;;
53269;SDS011;39159;45.634;9.420;2023-04-01T07:09:38;6.38;;;4.93;;
53269;SDS011;39159;45.634;9.420;2023-04-01T07:12:10;8.63;;;5.25;;
53269;SDS011;39159;45.634;9.420;2023-04-01T07:14:44;6.93;;;5.53;;
53269;SDS011;39159;45.634;9.420;2023-04-01T07:17:15;8.43;;;5.15;;
53269;SDS011;39159;45.634;9.420;2023-04-01T07:19:50;7.80;;;4.90;;
53269;SDS011;39159;45.634;9.420;2023-04-01T07:24:57;6.43;;;5.00;;
53269;SDS011;39159;45.634;9.420;2023-04-01T07:27:28;9.50;;;5.03;;
53269;SDS011;39159;45.634;9.420;2023-04-01T07:29:56;7.10;;;4.78;;
53269;SDS011;39159;45.634;9.420;2023-04-01T07:49:24;6.20;;;4.80;;
53269;SDS011;39159;45.634;9.420;2023-04-01T07:55:00;8.38;;;5.75;;
53269;SDS011;39159;45.634;9.420;2023-04-01T07:58:05;5.63;;;4.15;;
53269;SDS011;39159;45.634;9.420;2023-04-01T08:00:51;5.68;;;3.72;;
53269;SDS011;39159;45.634;9.420;2023-04-01T08:06:19;8.98;;;3.90;;
53269;SDS011;39159;45.634;9.420;2023-04-01T08:14:48;5.53;;;2.92;;
53269;SDS011;39159;45.634;9.420;2023-04-01T08:22:40;4.43;;;2.47;;
53269;SDS011;39159;45.634;9.420;2023-04-01T08:25:13;6.00;;;3.53;;
53269;SDS011;39159;45.634;9.420;2023-04-01T08:27:53;6.68;;;3.58;;
53269;SDS011;39159;45.634;9.420;2023-04-01T08:30:26;3.95;;;3.42;;
53269;SDS011;39159;45.634;9.420;2023-04-01T08:32:59;8.80;;;4.28;;
53269;SDS011;39159;45.634;9.420;2023-04-01T08:35:44;4.55;;;3.13;;
53269;SDS011;39159;45.634;9.420;2023-04-01T08:38:23;4.65;;;3.38;;
53269;SDS011;39159;45.634;9.420;2023-04-01T09:02:01;6.63;;;4.50;;
53269;SDS011;39159;45.634;9.420;2023-04-01T09:21:51;5.72;;;4.47;;
53269;SDS011;39159;45.634;9.420;2023-04-01T09:41:31;5.03;;;2.47;;
53269;SDS011;39159;45.634;9.420;2023-04-01T10:23:33;3.70;;;0.90;;
53269;SDS011;39159;45.634;9.420;2023-04-01T11:05:41;2.92;;;0.60;;
53269;SDS011;39159;45.634;9.420;2023-04-01T11:27:43;1.33;;;0.80;;
53269;SDS011;39159;45.634;9.420;2023-04-01T11:33:12;0.65;;;0.50;;
53269;SDS011;39159;45.634;9.420;2023-04-01T11:45:10;1.08;;;0.30;;
53269;SDS011;39159;45.634;9.420;2023-04-01T11:53:28;0.77;;;0.50;;
53269;SDS011;39159;45.634;9.420;2023-04-01T11:56:07;0.52;;;0.30;;
53269;SDS011;39159;45.634;9.420;2023-04-01T12:10:05;0.35;;;0.32;;
53269;SDS011;39159;45.634;9.420;2023-04-01T12:15:29;0.70;;;0.30;;
53269;SDS011;39159;45.634;9.420;2023-04-01T12:32:09;5.70;;;0.60;;
53269;SDS011;39159;45.634;9.420;2023-04-01T12:39:57;0.32;;;0.32;;
53269;SDS011;39159;45.634;9.420;2023-04-01T12:42:42;0.40;;;0.30;;
53269;SDS011;39159;45.634;9.420;2023-04-01T12:45:33;0.57;;;0.57;;
53269;SDS011;39159;45.634;9.420;2023-04-01T12:48:14;3.63;;;0.52;;
53269;SDS011;39159;45.634;9.420;2023-04-01T13:02:01;0.40;;;0.40;;
53269;SDS011;39159;45.634;9.420;2023-04-01T13:16:22;1.00;;;0.30;;
53269;SDS011;39159;45.634;9.420;2023-04-01T13:18:57;0.30;;;0.30;;
53269;SDS011;39159;45.634;9.420;2023-04-01T13:35:49;0.52;;;0.40;;
53269;SDS011;39159;45.634;9.420;2023-04-01T13:43:58;0.30;;;0.30;;
53269;SDS011;39159;45.634;9.420;2023-04-01T14:00:41;0.60;;;0.47;;
53269;SDS011;39159;45.634;9.420;2023-04-01T14:05:31;0.30;;;0.30;;
53269;SDS011;39159;45.634;9.420;2023-04-01T14:08:14;0.75;;;0.40;;
53269;SDS011;39159;45.634;9.420;2023-04-01T14:14:05;0.57;;;0.40;;
53269;SDS011;39159;45.634;9.420;2023-04-01T14:17:03;0.50;;;0.50;;
53269;SDS011;39159;45.634;9.420;2023-04-01T14:47:34;2.50;;;0.60;;
53269;SDS011;39159;45.634;9.420;2023-04-01T14:50:13;1.15;;;0.50;;
53269;SDS011;39159;45.634;9.420;2023-04-01T14:52:55;3.38;;;0.30;;
53269;SDS011;39159;45.634;9.420;2023-04-01T14:58:15;0.82;;;0.40;;
53269;SDS011;39159;45.634;9.420;2023-04-01T15:14:50;0.40;;;0.40;;
53269;SDS011;39159;45.634;9.420;2023-04-01T15:17:45;0.40;;;0.40;;
53269;SDS011;39159;45.634;9.420;2023-04-01T15:26:06;0.35;;;0.30;;
53269;SDS011;39159;45.634;9.420;2023-04-01T15:34:53;0.30;;;0.30;;
53269;SDS011;39159;45.634;9.420;2023-04-01T15:40:06;1.30;;;0.30;;
53269;SDS011;39159;45.634;9.420;2023-04-01T15:45:45;1.33;;;0.50;;
53269;SDS011;39159;45.634;9.420;2023-04-01T15:48:26;0.40;;;0.40;;
53269;SDS011;39159;45.634;9.420;2023-04-01T15:51:08;1.45;;;0.43;;
53269;SDS011;39159;45.634;9.420;2023-04-01T16:02:07;1.33;;;0.40;;
53269;SDS011;39159;45.634;9.420;2023-04-01T16:10:52;0.82;;;0.40;;
53269;SDS011;39159;45.634;9.420;2023-04-01T16:21:14;0.40;;;0.40;;
53269;SDS011;39159;45.634;9.420;2023-04-01T16:23:51;14.73;;;1.17;;
53269;SDS011;39159;45.634;9.420;2023-04-01T16:26:28;4.07;;;0.40;;
53269;SDS011;39159;45.634;9.420;2023-04-01T16:29:20;2.67;;;0.50;;
53269;SDS011;39159;45.634;9.420;2023-04-01T16:35:23;0.70;;;0.45;;
53269;SDS011;39159;45.634;9.420;2023-04-01T16:43:42;0.50;;;0.30;;
53269;SDS011;39159;45.634;9.420;2023-04-01T16:54:06;0.70;;;0.40;;
53269;SDS011;39159;45.634;9.420;2023-04-01T16:56:50;2.42;;;0.40;;
53269;SDS011;39159;45.634;9.420;2023-04-01T16:59:26;0.68;;;0.50;;
53269;SDS011;39159;45.634;9.420;2023-04-01T17:04:30;1.35;;;0.90;;
53269;SDS011;39159;45.634;9.420;2023-04-01T17:07:11;1.92;;;0.90;;
53269;SDS011;39159;45.634;9.420;2023-04-01T17:18:28;1.52;;;0.70;;
53269;SDS011;39159;45.634;9.420;2023-04-01T17:21:21;1.30;;;0.50;;
53269;SDS011;39159;45.634;9.420;2023-04-01T17:29:16;0.65;;;0.47;;
53269;SDS011;39159;45.634;9.420;2023-04-01T17:42:57;0.40;;;0.40;;
53269;SDS011;39159;45.634;9.420;2023-04-01T17:45:54;0.50;;;0.50;;
53269;SDS011;39159;45.634;9.420;2023-04-01T17:56:21;1.85;;;0.50;;
53269;SDS011;39159;45.634;9.420;2023-04-01T18:01:51;0.60;;;0.52;;
53269;SDS011;39159;45.634;9.420;2023-04-01T18:21:27;1.63;;;0.80;;
53269;SDS011;39159;45.634;9.420;2023-04-01T18:24:22;1.10;;;0.68;;
53269;SDS011;39159;45.634;9.420;2023-04-01T18:27:03;4.18;;;0.80;;
53269;SDS011;39159;45.634;9.420;2023-04-01T18:29:50;1.25;;;1.00;;
53269;SDS011;39159;45.634;9.420;2023-04-01T18:35:55;2.33;;;1.60;;
53269;SDS011;39159;45.634;9.420;2023-04-01T18:38:52;1.08;;;0.90;;
53269;SDS011;39159;45.634;9.420;2023-04-01T18:44:23;2.50;;;1.05;;
53269;SDS011;39159;45.634;9.420;2023-04-01T18:46:59;1.98;;;0.90;;
53269;SDS011;39159;45.634;9.420;2023-04-01T18:52:10;2.13;;;1.10;;
53269;SDS011;39159;45.634;9.420;2023-04-01T18:57:25;1.70;;;1.15;;
53269;SDS011;39159;45.634;9.420;2023-04-01T19:00:04;4.43;;;1.67;;
53269;SDS011;39159;45.634;9.420;2023-04-01T19:02:41;7.60;;;5.82;;
53269;SDS011;39159;45.634;9.420;2023-04-01T19:05:18;11.95;;;6.93;;
53269;SDS011;39159;45.634;9.420;2023-04-01T19:07:49;9.70;;;7.32;;
53269;SDS011;39159;45.634;9.420;2023-04-01T19:21:27;3.90;;;2.60;;
53269;SDS011;39159;45.634;9.420;2023-04-01T19:24:10;3.95;;;2.75;;
53269;SDS011;39159;45.634;9.420;2023-04-01T19:37:50;1.98;;;1.30;;
53269;SDS011;39159;45.634;9.420;2023-04-01T19:40:29;1.77;;;1.38;;
53269;SDS011;39159;45.634;9.420;2023-04-01T19:43:13;5.28;;;1.60;;
53269;SDS011;39159;45.634;9.420;2023-04-01T19:48:56;3.72;;;1.90;;
53269;SDS011;39159;45.634;9.420;2023-04-01T19:54:04;5.28;;;1.80;;
53269;SDS011;39159;45.634;9.420;2023-04-01T19:56:55;3.03;;;2.03;;
53269;SDS011;39159;45.634;9.420;2023-04-01T19:59:51;3.80;;;2.80;;
53269;SDS011;39159;45.634;9.420;2023-04-01T20:02:33;7.95;;;3.80;;
53269;SDS011;39159;45.634;9.420;2023-04-01T20:05:03;6.00;;;3.97;;
53269;SDS011;39159;45.634;9.420;2023-04-01T20:07:48;5.28;;;3.60;;
53269;SDS011;39159;45.634;9.420;2023-04-01T20:16:03;7.53;;;4.45;;
53269;SDS011;39159;45.634;9.420;2023-04-01T20:18:36;5.38;;;2.85;;
53269;SDS011;39159;45.634;9.420;2023-04-01T20:21:05;3.97;;;2.28;;
53269;SDS011;39159;45.634;9.420;2023-04-01T20:23:45;2.97;;;1.90;;
53269;SDS011;39159;45.634;9.420;2023-04-01T20:26:20;2.05;;;1.42;;
53269;SDS011;39159;45.634;9.420;2023-04-01T20:48:51;2.67;;;1.58;;
53269;SDS011;39159;45.634;9.420;2023-04-01T20:51:28;2.03;;;1.40;;
53269;SDS011;39159;45.634;9.420;2023-04-01T21:34:48;2.60;;;1.60;;
53269;SDS011;39159;45.634;9.420;2023-04-01T21:38:03;4.10;;;2.22;;
53269;SDS011;39159;45.634;9.420;2023-04-01T22:06:28;1.67;;;1.20;;
53269;SDS011;39159;45.634;9.420;2023-04-01T22:11:40;1.88;;;1.17;;
53269;SDS011;39159;45.634;9.420;2023-04-01T22:17:11;2.15;;;1.30;;
53269;SDS011;39159;45.634;9.420;2023-04-01T22:22:49;1.63;;;1.20;;
53269;SDS011;39159;45.634;9.420;2023-04-01T22:28:27;6.22;;;2.13;;
53269;SDS011;39159;45.634;9.420;2023-04-01T22:31:02;6.10;;;3.13;;
53269;SDS011;39159;45.634;9.420;2023-04-01T22:44:00;1.40;;;0.95;;
53269;SDS011;39159;45.634;9.420;2023-04-01T22:49:21;1.40;;;0.90;;
53269;SDS011;39159;45.634;9.420;2023-04-01T22:54:49;1.83;;;1.00;;
53269;SDS011;39159;45.634;9.420;2023-04-01T22:58:04;1.48;;;0.88;;
53269;SDS011;39159;45.634;9.420;2023-04-01T23:00:14;1.27;;;0.80;;
53269;SDS011;39159;45.634;9.420;2023-04-01T23:02:47;1.80;;;1.15;;
53269;SDS011;39159;45.634;9.420;2023-04-01T23:11:31;3.35;;;1.00;;
53269;SDS011;39159;45.634;9.420;2023-04-01T23:16:48;2.65;;;1.52;;
53269;SDS011;39159;45.634;9.420;2023-04-01T23:27:07;2.63;;;1.50;;
53269;SDS011;39159;45.634;9.420;2023-04-01T23:29:40;4.63;;;1.40;;
53269;SDS011;39159;45.634;9.420;2023-04-01T23:32:14;4.07;;;1.50;;
53269;SDS011;39159;45.634;9.420;2023-04-01T23:34:49;2.05;;;1.30;;
53269;SDS011;39159;45.634;9.420;2023-04-01T23:37:16;1.90;;;1.30;;
53269;SDS011;39159;45.634;9.420;2023-04-01T23:39:48;1.42;;;1.00;;
53269;SDS011;39159;45.634;9.420;2023-04-01T23:42:23;1.50;;;1.20;;
53269;SDS011;39159;45.634;9.420;2023-04-01T23:44:52;1.73;;;0.93;;
53269;SDS011;39159;45.634;9.420;2023-04-01T23:47:22;2.28;;;1.05;;
53269;SDS011;39159;45.634;9.420;2023-04-01T23:50:36;1.02;;;0.93;;
53269;SDS011;39159;45.634;9.420;2023-04-01T23:53:05;4.55;;;1.10;;
53269;SDS011;39159;45.634;9.420;2023-04-01T23:55:36;0.95;;;0.85;;
